Time;durP1;ratioP1;P1;durP2;ratioP2;P2;SDS_P1;SDS_P2;PMS_P1;PMS_P2;Temp;Humidity;BMP_temperature;BMP_pressure;BME280_temperature;BME280_humidity;BME280_pressure;Samples;Min_cycle;Max_cycle;Signal;HPM_P1;HPM_P2
2023/09/05 00:01:03;;;;;;;11.40;6.90;;;;;;;16.29;100.00;101652.77;218438;1286;142856;-87
2023/09/05 00:06:05;;;;;;;12.30;7.20;;;;;;;16.24;100.00;101648.61;218839;1287;139500;-87
2023/09/05 00:11:06;;;;;;;13.00;6.60;;;;;;;16.20;100.00;101642.56;218324;1285;142366;-87
2023/09/05 00:16:07;;;;;;;16.80;8.00;;;;;;;16.18;100.00;101642.21;218946;1286;139949;-88
2023/09/05 00:21:08;;;;;;;14.00;7.90;;;;;;;16.16;100.00;101642.21;218438;1286;141707;-87
2023/09/05 00:26:08;;;;;;;14.30;7.60;;;;;;;16.16;100.00;101640.45;218936;1286;139777;-87
2023/09/05 00:31:11;;;;;;;10.10;6.40;;;;;;;16.14;100.00;101637.90;218338;1286;142533;-86
2023/09/05 00:36:12;;;;;;;14.10;7.80;;;;;;;16.15;100.00;101635.14;218791;1286;96096;-88
2023/09/05 00:41:15;;;;;;;15.30;8.80;;;;;;;16.15;100.00;101630.23;218297;1287;141109;-88
2023/09/05 00:46:16;;;;;;;16.00;8.80;;;;;;;16.16;100.00;101626.81;218847;1288;139413;-87
2023/09/05 00:51:18;;;;;;;18.40;8.30;;;;;;;16.16;100.00;101621.41;218394;1287;141295;-88
2023/09/05 00:56:18;;;;;;;13.20;7.70;;;;;;;16.14;100.00;101621.88;218906;1286;139879;-87
2023/09/05 01:01:19;;;;;;;16.90;8.70;;;;;;;16.13;100.00;101622.09;218387;1286;141445;-87
2023/09/05 01:06:31;;;;;;;14.00;8.80;;;;;;;16.13;100.00;101619.80;218982;1286;95922;-88
2023/09/05 01:11:32;;;;;;;16.60;9.00;;;;;;;16.13;100.00;101615.51;218297;1285;141633;-88
2023/09/05 01:16:32;;;;;;;13.30;8.10;;;;;;;16.14;100.00;101608.95;218861;1286;139506;-87
2023/09/05 01:21:39;;;;;;;13.30;8.40;;;;;;;16.16;100.00;101607.44;218400;1288;142970;-88
2023/09/05 01:26:40;;;;;;;16.00;8.70;;;;;;;16.18;100.00;101604.76;218692;1287;139803;-88
2023/09/05 01:31:42;;;;;;;14.30;8.70;;;;;;;16.20;100.00;101595.58;218375;1286;141266;-88
2023/09/05 01:36:43;;;;;;;14.20;9.10;;;;;;;16.23;100.00;101592.64;218993;1288;96074;-88
2023/09/05 01:41:44;;;;;;;15.60;9.20;;;;;;;16.26;100.00;101592.20;218297;1288;141059;-88
2023/09/05 01:46:44;;;;;;;13.30;7.90;;;;;;;16.26;100.00;101589.34;218813;1286;139377;-88
2023/09/05 01:51:45;;;;;;;13.20;8.00;;;;;;;16.26;100.00;101584.98;218266;1286;141912;-88
2023/09/05 01:56:45;;;;;;;12.00;8.40;;;;;;;16.26;100.00;101588.23;218876;1288;139614;-87
2023/09/05 02:01:46;;;;;;;12.30;8.10;;;;;;;16.25;100.00;101579.48;218317;1288;143126;-88
2023/09/05 02:06:47;;;;;;;12.20;8.30;;;;;;;16.25;100.00;101577.27;218822;1288;95968;-88
2023/09/05 02:11:47;;;;;;;13.30;6.40;;;;;;;16.26;100.00;101574.58;218382;1286;142006;-87
2023/09/05 02:16:48;;;;;;;10.70;6.60;;;;;;;16.30;100.00;101568.95;218848;1287;139053;-88
2023/09/05 02:21:49;;;;;;;10.30;6.30;;;;;;;16.32;100.00;101571.42;218183;1288;142286;-88
2023/09/05 02:26:50;;;;;;;12.00;6.90;;;;;;;16.35;100.00;101570.41;218668;1287;139349;-88
2023/09/05 02:31:50;;;;;;;13.70;8.00;;;;;;;16.38;100.00;101570.92;218398;1286;141949;-87
2023/09/05 02:36:54;;;;;;;13.50;6.50;;;;;;;16.43;100.00;101576.38;219010;1288;96240;-88
2023/09/05 02:41:54;;;;;;;13.00;6.90;;;;;;;16.48;100.00;101577.67;218304;1287;141046;-87
2023/09/05 02:46:55;;;;;;;13.80;6.60;;;;;;;16.52;100.00;101567.05;218848;1287;140530;-88
2023/09/05 02:51:57;;;;;;;10.30;6.70;;;;;;;16.55;100.00;101570.23;218330;1286;142174;-88
2023/09/05 02:56:57;;;;;;;11.50;7.00;;;;;;;16.56;100.00;101568.73;218861;1287;140871;-88
2023/09/05 03:01:57;;;;;;;10.40;6.80;;;;;;;16.57;100.00;101563.17;218361;1288;141756;-87
2023/09/05 03:07:02;;;;;;;11.50;7.10;;;;;;;16.55;100.00;101560.55;219008;1286;96018;-88
2023/09/05 03:12:05;;;;;;;10.40;6.60;;;;;;;16.51;100.00;101554.66;218326;1287;141874;-88
2023/09/05 03:17:07;;;;;;;12.00;6.60;;;;;;;16.47;100.00;101549.15;218753;1288;139594;-88
2023/09/05 03:22:07;;;;;;;12.90;6.80;;;;;;;16.41;100.00;101550.15;218197;1291;141489;-88
2023/09/05 03:27:08;;;;;;;12.00;6.80;;;;;;;16.35;100.00;101551.05;218796;1288;139729;-88
2023/09/05 03:32:08;;;;;;;9.90;6.10;;;;;;;16.29;100.00;101556.73;218382;1287;141343;-87
2023/09/05 03:37:09;;;;;;;12.70;7.50;;;;;;;16.24;100.00;101557.50;218940;1287;139514;-87
2023/09/05 03:42:10;;;;;;;11.50;8.10;;;;;;;16.18;100.00;101559.84;218310;1288;142101;-88
2023/09/05 03:47:10;;;;;;;14.30;8.20;;;;;;;16.09;100.00;101560.25;218952;1287;139510;-88
2023/09/05 03:52:11;;;;;;;15.90;8.10;;;;;;;16.03;100.00;101563.95;218346;1288;142336;-88
2023/09/05 03:57:11;;;;;;;11.80;7.40;;;;;;;15.97;100.00;101567.23;218935;1285;139949;-88
2023/09/05 04:02:12;;;;;;;11.40;8.40;;;;;;;15.89;100.00;101567.64;218309;1285;141581;-88
2023/09/05 04:07:12;;;;;;;13.00;8.70;;;;;;;15.79;100.00;101573.20;218878;1289;139665;-88
2023/09/05 04:12:13;;;;;;;13.60;8.90;;;;;;;15.70;100.00;101572.73;218499;1286;141357;-88
2023/09/05 04:17:13;;;;;;;13.10;8.10;;;;;;;15.62;100.00;101577.50;218897;1287;140153;-87
2023/09/05 04:22:14;;;;;;;16.90;10.20;;;;;;;15.56;100.00;101576.89;218243;1285;142311;-88
2023/09/05 04:27:14;;;;;;;14.70;9.50;;;;;;;15.52;100.00;101576.92;218913;1286;140115;-87
2023/09/05 04:32:14;;;;;;;13.70;8.80;;;;;;;15.50;100.00;101578.73;218414;1286;141698;-88
2023/09/05 04:37:17;;;;;;;18.50;12.50;;;;;;;15.46;100.00;101576.88;219470;1286;140015;-88
2023/09/05 04:42:17;;;;;;;26.70;16.10;;;;;;;15.43;100.00;101576.20;218417;1288;142920;-88
2023/09/05 04:47:29;;;;;;;22.50;13.40;;;;;;;15.41;100.00;101577.61;218865;1287;139873;-87
2023/09/05 04:52:30;;;;;;;24.80;15.30;;;;;;;15.39;100.00;101578.55;218590;1288;141817;-87
2023/09/05 04:57:30;;;;;;;21.30;13.30;;;;;;;15.39;100.00;101581.41;218775;1288;139396;-88
2023/09/05 05:02:33;;;;;;;18.00;12.40;;;;;;;15.41;100.00;101586.02;218287;1287;141556;-87
2023/09/05 05:07:33;;;;;;;21.30;14.30;;;;;;;15.41;100.00;101584.67;218738;1288;139949;-87
2023/09/05 05:12:34;;;;;;;23.30;13.80;;;;;;;15.45;100.00;101589.14;218376;1286;142627;-88
2023/09/05 05:17:36;;;;;;;26.40;14.70;;;;;;;15.55;100.00;101589.48;218779;1288;140249;-87
2023/09/05 05:22:36;;;;;;;24.90;16.00;;;;;;;15.63;100.00;101587.83;218291;1286;141548;-87
2023/09/05 05:27:37;;;;;;;26.20;15.70;;;;;;;15.73;100.00;101580.85;218822;1286;139993;-87
2023/09/05 05:32:37;;;;;;;28.50;16.60;;;;;;;15.88;100.00;101570.42;218269;1288;141219;-88
2023/09/05 05:37:37;;;;;;;27.70;16.10;;;;;;;15.98;100.00;101573.83;218861;1288;140508;-87
2023/09/05 05:42:38;;;;;;;30.00;15.40;;;;;;;16.08;100.00;101566.91;218227;1288;143393;-88
2023/09/05 05:47:38;;;;;;;31.50;16.90;;;;;;;16.18;100.00;101566.73;218846;1286;139209;-88
2023/09/05 05:52:39;;;;;;;28.00;15.30;;;;;;;16.28;100.00;101576.17;217963;1289;142038;-89
2023/09/05 05:57:39;;;;;;;26.00;16.80;;;;;;;16.44;100.00;101584.40;218509;1287;139762;-89
2023/09/05 06:02:42;;;;;;;23.10;13.70;;;;;;;16.61;100.00;101582.43;218363;1287;140438;-88
2023/09/05 06:07:43;;;;;;;27.30;13.70;;;;;;;16.84;100.00;101583.48;218782;1288;141105;-89
2023/09/05 06:12:43;;;;;;;20.20;11.90;;;;;;;17.11;100.00;101588.09;218291;1286;142521;-89
2023/09/05 06:17:46;;;;;;;19.50;11.40;;;;;;;17.36;100.00;101585.79;218706;1290;139690;-88
2023/09/05 06:22:47;;;;;;;26.20;10.70;;;;;;;17.56;100.00;101591.97;218173;1288;141431;-89
2023/09/05 06:27:48;;;;;;;20.00;9.50;;;;;;;17.73;100.00;101594.52;218728;1288;139500;-89
2023/09/05 06:32:48;;;;;;;15.50;8.30;;;;;;;17.83;100.00;101598.98;218149;1288;143009;-89
2023/09/05 06:37:55;;;;;;;20.30;8.70;;;;;;;17.89;100.00;101606.14;219069;1288;139340;-89
2023/09/05 06:42:56;;;;;;;13.20;7.50;;;;;;;18.01;100.00;101611.63;218102;1288;142252;-89
2023/09/05 06:47:57;;;;;;;12.90;6.80;;;;;;;18.14;100.00;101616.23;218802;1287;139014;-90
2023/09/05 06:52:57;;;;;;;14.50;7.20;;;;;;;18.30;100.00;101618.70;218204;1288;141548;-88
2023/09/05 06:57:57;;;;;;;16.10;7.60;;;;;;;18.45;100.00;101621.48;218762;1288;140099;-88
2023/09/05 07:02:58;;;;;;;19.40;8.30;;;;;;;18.61;100.00;101617.45;218148;1288;143109;-87
2023/09/05 07:07:58;;;;;;;15.20;8.30;;;;;;;18.80;100.00;101615.56;218906;1288;139723;-88
2023/09/05 07:12:59;;;;;;;17.40;8.40;;;;;;;18.95;100.00;101612.88;218689;1287;141277;-89
2023/09/05 07:17:59;;;;;;;17.20;8.10;;;;;;;19.10;100.00;101610.48;218761;1287;139448;-87
2023/09/05 07:23:02;;;;;;;15.70;7.10;;;;;;;19.26;100.00;101617.30;218477;1288;143030;-86
2023/09/05 07:28:03;;;;;;;15.50;8.30;;;;;;;19.40;100.00;101618.49;218707;1289;139386;-90
2023/09/05 07:33:04;;;;;;;19.20;7.50;;;;;;;19.54;100.00;101620.09;218290;1286;142844;-88
2023/09/05 07:38:04;;;;;;;14.90;7.30;;;;;;;19.70;100.00;101627.55;218805;1286;139925;-88
2023/09/05 07:43:05;;;;;;;12.40;6.50;;;;;;;19.84;100.00;101640.29;218566;1288;141361;-88
2023/09/05 07:48:32;;;;;;;13.80;6.00;;;;;;;19.99;100.00;101636.19;218836;1290;138832;-88
2023/09/05 07:53:36;;;;;;;14.40;6.80;;;;;;;20.17;99.86;101638.63;216804;1294;142747;-88
2023/09/05 07:58:37;;;;;;;14.10;6.40;;;;;;;20.35;99.39;101644.76;218575;1288;139496;-88
2023/09/05 08:03:37;;;;;;;11.10;4.70;;;;;;;20.52;99.01;101651.21;218392;1288;140111;-90
2023/09/05 08:08:38;;;;;;;15.70;4.80;;;;;;;20.71;97.07;101653.02;218496;1289;139613;-89
2023/09/05 08:13:38;;;;;;;7.00;4.00;;;;;;;20.93;96.36;101651.76;218250;1288;141522;-90
2023/09/05 08:18:39;;;;;;;12.70;4.30;;;;;;;21.12;95.24;101653.68;218745;1289;96047;-90
2023/09/05 08:23:39;;;;;;;84.30;27.90;;;;;;;21.32;94.59;101649.34;218124;1289;140719;-90
2023/09/05 08:28:44;;;;;;;10.50;4.80;;;;;;;21.51;95.19;101644.91;218632;1289;139511;-87
2023/09/05 08:33:45;;;;;;;10.90;4.80;;;;;;;21.75;93.63;101648.57;218230;1287;142023;-88
2023/09/05 08:38:45;;;;;;;11.80;4.50;;;;;;;22.00;91.11;101651.72;218861;1288;139343;-88
2023/09/05 08:43:45;;;;;;;10.30;4.40;;;;;;;22.27;90.99;101648.13;218287;1287;141583;-90
2023/09/05 08:48:46;;;;;;;9.50;5.10;;;;;;;22.57;91.34;101644.15;218926;1286;96035;-87
2023/09/05 08:53:56;;;;;;;11.70;4.80;;;;;;;22.89;89.66;101655.55;218304;1287;140966;-87
2023/09/05 08:58:57;;;;;;;12.20;4.70;;;;;;;23.29;87.36;101644.95;218743;1288;138781;-88
2023/09/05 09:03:59;;;;;;;12.80;3.70;;;;;;;23.80;85.87;101640.89;218102;1288;141773;-89
2023/09/05 09:08:59;;;;;;;14.40;3.90;;;;;;;24.42;83.38;101635.86;218764;1289;139135;-89
2023/09/05 09:14:00;;;;;;;11.00;4.30;;;;;;;25.06;82.12;101629.35;218319;1289;141327;-89
2023/09/05 09:19:03;;;;;;;10.10;4.50;;;;;;;25.58;78.89;101624.78;218923;1288;96048;-90
2023/09/05 09:24:08;;;;;;;9.30;3.20;;;;;;;26.06;76.26;101621.03;218210;1289;139900;-88
2023/09/05 09:29:09;;;;;;;8.60;3.50;;;;;;;26.41;72.34;101614.42;218059;1287;140906;-89
2023/09/05 09:34:10;;;;;;;10.30;3.80;;;;;;;26.71;71.94;101611.35;218963;1286;139033;-89
2023/09/05 09:39:12;;;;;;;12.60;4.10;;;;;;;27.18;71.32;101602.46;218357;1288;140343;-89
2023/09/05 09:44:30;;;;;;;8.10;3.90;;;;;;;27.68;69.57;101592.62;218852;1287;138682;-88
2023/09/05 09:49:31;;;;;;;8.20;3.30;;;;;;;27.92;69.54;101587.27;218386;1287;141653;-89
2023/09/05 09:54:37;;;;;;;7.50;3.50;;;;;;;28.55;67.15;101585.84;218788;1289;95839;-89
2023/09/05 09:59:45;;;;;;;10.10;3.60;;;;;;;28.84;63.75;101580.54;218321;1289;140405;-88
2023/09/05 10:04:46;;;;;;;6.70;2.90;;;;;;;29.08;65.61;101579.07;218815;1287;139159;-89
2023/09/05 10:09:49;;;;;;;8.50;3.00;;;;;;;29.63;61.97;101579.42;218219;1287;141228;-88
2023/09/05 10:14:51;;;;;;;19.30;4.30;;;;;;;30.04;61.15;101572.16;218935;1286;139151;-88
2023/09/05 10:19:53;;;;;;;7.10;3.50;;;;;;;30.55;59.87;101565.20;218309;1286;140249;-87
2023/09/05 10:24:53;;;;;;;10.20;3.50;;;;;;;30.71;56.96;101558.40;218875;1286;96308;-88
2023/09/05 10:29:54;;;;;;;10.30;3.10;;;;;;;30.89;56.26;101559.50;218304;1289;140444;-88
2023/09/05 10:35:01;;;;;;;14.50;3.20;;;;;;;30.91;54.65;101554.98;218842;1288;138175;-87
2023/09/05 10:40:07;;;;;;;10.40;3.10;;;;;;;31.09;55.85;101550.09;218165;1291;142515;-88
2023/09/05 10:45:23;;;;;;;8.90;2.90;;;;;;;31.37;54.50;101550.15;218625;1291;138719;-89
2023/09/05 10:50:24;;;;;;;9.80;2.90;;;;;;;31.25;52.76;101548.50;218387;1288;141637;-90
2023/09/05 10:55:25;;;;;;;7.10;2.60;;;;;;;31.29;52.44;101537.92;218726;1288;138788;-89
2023/09/05 11:00:29;;;;;;;6.40;3.10;;;;;;;31.40;52.53;101524.02;218199;1286;311907;-89
2023/09/05 11:05:31;;;;;;;10.10;2.90;;;;;;;31.41;51.73;101520.63;218645;1287;138079;-89
2023/09/05 11:10:37;;;;;;;8.00;2.90;;;;;;;31.44;50.88;101509.23;218332;1289;141455;-90
2023/09/05 11:15:43;;;;;;;8.10;2.80;;;;;;;31.07;49.88;101503.70;218608;1288;138532;-88
2023/09/05 11:20:45;;;;;;;5.90;3.40;;;;;;;30.82;49.89;101501.93;218293;1286;140416;-88
2023/09/05 11:25:53;;;;;;;8.70;3.30;;;;;;;30.49;50.12;101498.70;218641;1288;138361;-89
2023/09/05 11:31:02;;;;;;;6.60;2.90;;;;;;;30.43;51.10;101491.55;218298;1289;142234;-90
2023/09/05 11:36:07;;;;;;;8.90;3.30;;;;;;;30.32;50.63;101487.61;218940;1289;138423;-88
2023/09/05 11:41:09;;;;;;;8.40;3.00;;;;;;;29.98;50.69;101485.00;218348;1288;140017;-88
2023/09/05 11:46:10;;;;;;;6.80;2.90;;;;;;;29.81;50.93;101482.67;218776;1286;138555;-88
2023/09/05 11:51:14;;;;;;;7.60;3.00;;;;;;;29.81;51.42;101479.90;218312;1288;140315;-88
2023/09/05 11:56:15;;;;;;;5.70;2.70;;;;;;;29.81;51.58;101471.42;218787;1287;138815;-89
2023/09/05 12:01:27;;;;;;;8.40;3.30;;;;;;;29.76;51.58;101465.65;218359;1288;141765;-88
2023/09/05 12:06:28;;;;;;;5.80;3.10;;;;;;;29.81;51.48;101463.85;218924;1287;96442;-89
2023/09/05 12:11:29;;;;;;;8.90;2.50;;;;;;;29.75;51.15;101454.33;218400;1288;140281;-88
2023/09/05 12:16:29;;;;;;;6.60;3.20;;;;;;;29.40;51.18;101457.80;218789;1288;138838;-88
2023/09/05 12:21:44;;;;;;;7.20;3.20;;;;;;;29.31;52.70;101452.46;218114;1286;140637;-89
2023/09/05 12:26:44;;;;;;;7.20;3.40;;;;;;;29.21;51.18;101450.86;218782;1288;139673;-87
2023/09/05 12:31:45;;;;;;;6.80;2.60;;;;;;;28.69;52.86;101438.49;218343;1286;140746;-89
2023/09/05 12:36:46;;;;;;;6.00;2.70;;;;;;;28.72;52.48;101442.02;218692;1290;95971;-88
2023/09/05 12:41:46;;;;;;;7.00;2.90;;;;;;;28.69;52.67;101435.45;218236;1287;139889;-86
2023/09/05 12:46:47;;;;;;;6.70;2.70;;;;;;;28.75;53.37;101427.42;218865;1287;139597;-88
2023/09/05 12:51:49;;;;;;;7.10;3.10;;;;;;;28.78;53.03;101418.84;218355;1288;140617;-88
2023/09/05 12:56:50;;;;;;;6.60;2.80;;;;;;;28.67;53.28;101416.56;218579;1291;139402;-88
2023/09/05 13:01:53;;;;;;;6.30;2.80;;;;;;;28.62;53.47;101404.36;218361;1288;140605;-87
2023/09/05 13:06:53;;;;;;;5.50;2.70;;;;;;;28.73;52.98;101408.77;218799;1286;96064;-87
2023/09/05 13:11:54;;;;;;;8.00;3.00;;;;;;;28.76;53.23;101405.29;218211;1287;140754;-87
2023/09/05 13:16:55;;;;;;;5.80;2.40;;;;;;;28.78;53.04;101402.30;218623;1286;138400;-86
2023/09/05 13:21:55;;;;;;;8.00;3.00;;;;;;;28.78;53.52;101391.93;218429;1288;142026;-87
2023/09/05 13:26:58;;;;;;;8.20;2.80;;;;;;;28.90;53.50;101389.23;218852;1288;138698;-88
2023/09/05 13:31:59;;;;;;;6.20;2.50;;;;;;;28.87;52.17;101381.95;218161;1288;140743;-89
2023/09/05 13:37:00;;;;;;;9.40;2.70;;;;;;;28.61;51.93;101373.44;218925;1288;96296;-87
2023/09/05 13:42:01;;;;;;;6.60;2.80;;;;;;;28.44;53.31;101375.14;218193;1288;139858;-87
2023/09/05 13:47:03;;;;;;;6.40;2.90;;;;;;;28.56;53.64;101370.02;218874;1286;137975;-89
2023/09/05 13:52:04;;;;;;;9.80;3.30;;;;;;;28.53;52.80;101370.06;218343;1286;140436;-87
2023/09/05 13:57:07;;;;;;;5.60;2.70;;;;;;;28.36;52.62;101362.86;218833;1287;140486;-88
2023/09/05 14:02:09;;;;;;;21.90;3.30;;;;;;;28.28;53.42;101358.71;218196;1286;141603;-87
2023/09/05 14:07:09;;;;;;;5.70;2.90;;;;;;;28.28;53.02;101362.27;218634;1286;138398;-86
2023/09/05 14:12:17;;;;;;;8.20;3.50;;;;;;;28.21;53.02;101350.84;218577;1286;140244;-87
2023/09/05 14:17:18;;;;;;;5.70;3.10;;;;;;;28.14;53.92;101346.98;218656;1288;138624;-87
2023/09/05 14:22:18;;;;;;;9.80;3.50;;;;;;;28.14;53.15;101350.80;218149;1288;141698;-86
2023/09/05 14:27:19;;;;;;;5.40;2.70;;;;;;;28.10;53.99;101348.80;218888;1287;139411;-87
2023/09/05 14:32:19;;;;;;;7.60;2.60;;;;;;;27.95;54.37;101342.42;218332;1286;141363;-86
2023/09/05 14:37:20;;;;;;;4.30;2.50;;;;;;;27.71;52.97;101340.88;218894;1287;138860;-86
2023/09/05 14:42:20;;;;;;;6.60;2.40;;;;;;;27.55;54.07;101340.77;218452;1288;140260;-86
2023/09/05 14:47:21;;;;;;;7.50;2.80;;;;;;;27.45;54.13;101341.56;218660;1288;138151;-86
2023/09/05 14:52:29;;;;;;;5.80;2.30;;;;;;;27.35;53.37;101339.78;218383;1288;142469;-85
2023/09/05 14:57:30;;;;;;;7.50;2.50;;;;;;;27.06;53.00;101328.62;218810;1288;138211;-86
2023/09/05 15:02:30;;;;;;;7.40;2.70;;;;;;;26.80;53.21;101322.70;218433;1286;141588;-86
2023/09/05 15:07:33;;;;;;;5.50;2.10;;;;;;;26.57;54.13;101323.02;218749;1288;138227;-87
2023/09/05 15:12:33;;;;;;;10.00;2.40;;;;;;;26.39;54.25;101316.80;218520;1287;140240;-86
2023/09/05 15:17:36;;;;;;;7.20;2.40;;;;;;;26.21;54.83;101314.14;218895;1288;138286;-85
2023/09/05 15:22:37;;;;;;;7.70;2.50;;;;;;;26.13;55.95;101308.61;218118;1286;142802;-86
2023/09/05 15:27:37;;;;;;;7.60;2.60;;;;;;;26.03;55.60;101313.94;218638;1286;138386;-86
2023/09/05 15:32:39;;;;;;;5.70;2.40;;;;;;;25.88;56.29;101306.90;218397;1288;142358;-86
2023/09/05 15:37:40;;;;;;;7.00;2.30;;;;;;;25.72;56.01;101303.18;218892;1286;139103;-86
2023/09/05 15:42:41;;;;;;;6.40;2.40;;;;;;;25.56;56.53;101290.65;218443;1288;140421;-87
2023/09/05 15:47:42;;;;;;;7.70;2.50;;;;;;;25.41;57.04;101289.91;218869;1286;138407;-87
2023/09/05 15:52:42;;;;;;;7.60;2.70;;;;;;;25.26;57.18;101290.52;218279;1287;140881;-88
2023/09/05 15:57:43;;;;;;;6.00;2.90;;;;;;;25.13;57.80;101295.06;218846;1287;138314;-87
2023/09/05 16:02:43;;;;;;;8.50;2.50;;;;;;;24.99;57.73;101283.33;218312;1286;140045;-87
2023/09/05 16:07:44;;;;;;;7.90;2.20;;;;;;;24.89;58.18;101275.72;218885;1287;139006;-85
2023/09/05 16:12:44;;;;;;;5.60;2.30;;;;;;;24.81;58.63;101277.18;218485;1287;141104;-87
2023/09/05 16:17:45;;;;;;;5.90;2.30;;;;;;;24.73;59.40;101278.44;218868;1285;137995;-87
2023/09/05 16:22:46;;;;;;;5.70;2.20;;;;;;;24.63;59.52;101273.70;218133;1285;140294;-85
2023/09/05 16:27:46;;;;;;;5.20;2.20;;;;;;;24.55;59.79;101266.38;218779;1286;141665;-86
2023/09/05 16:32:48;;;;;;;7.00;2.40;;;;;;;24.45;59.73;101269.83;218355;1288;141342;-87
2023/09/05 16:37:49;;;;;;;6.60;2.60;;;;;;;24.33;60.15;101276.98;218890;1288;138184;-87
2023/09/05 16:42:50;;;;;;;5.50;2.30;;;;;;;24.23;60.09;101275.70;218242;1286;142987;-87
2023/09/05 16:47:51;;;;;;;8.00;2.60;;;;;;;24.13;60.72;101269.34;218694;1286;137964;-88
2023/09/05 16:52:51;;;;;;;8.20;2.70;;;;;;;24.04;61.55;101268.09;218172;1287;140161;-87
2023/09/05 16:57:51;;;;;;;9.00;2.90;;;;;;;23.95;61.74;101261.86;218551;1287;139141;-86
2023/09/05 17:02:52;;;;;;;8.20;2.80;;;;;;;23.83;62.04;101264.04;218170;1286;139857;-87
2023/09/05 17:07:52;;;;;;;6.70;2.80;;;;;;;23.73;62.57;101260.25;218920;1287;137074;-86
2023/09/05 17:12:53;;;;;;;11.90;3.10;;;;;;;23.64;62.74;101253.13;218405;1288;140570;-87
2023/09/05 17:17:57;;;;;;;11.50;3.00;;;;;;;23.51;62.89;101248.21;218601;1288;138382;-88
2023/09/05 17:22:57;;;;;;;9.10;3.20;;;;;;;23.37;63.88;101241.73;218013;1286;139366;-88
2023/09/05 17:27:59;;;;;;;8.00;3.20;;;;;;;23.19;65.41;101247.44;218706;1287;139529;-87
2023/09/05 17:32:59;;;;;;;10.30;3.50;;;;;;;22.98;66.51;101249.76;217868;1286;141833;-89
2023/09/05 17:37:59;;;;;;;7.30;3.30;;;;;;;22.86;68.27;101257.30;218721;1287;138560;-88
2023/09/05 17:43:00;;;;;;;11.30;3.70;;;;;;;22.55;69.33;101264.19;218057;1287;141689;-87
2023/09/05 17:48:01;;;;;;;16.70;4.50;;;;;;;22.26;70.26;101266.29;218502;1288;138963;-88
2023/09/05 17:53:01;;;;;;;9.50;4.40;;;;;;;22.07;71.32;101260.73;218226;1286;141273;-87
2023/09/05 17:58:02;;;;;;;10.10;4.00;;;;;;;21.87;72.24;101268.39;218789;1286;138278;-88
2023/09/05 18:03:02;;;;;;;11.70;4.40;;;;;;;21.61;73.19;101274.77;218380;1288;140039;-87
2023/09/05 18:08:03;;;;;;;7.90;4.20;;;;;;;21.45;74.28;101274.30;218800;1287;138532;-88
2023/09/05 18:13:03;;;;;;;10.30;4.00;;;;;;;21.25;75.27;101283.10;218411;1288;139804;-89
2023/09/05 18:18:05;;;;;;;10.00;4.10;;;;;;;21.00;76.51;101285.70;218795;1286;138479;-89
2023/09/05 18:23:05;;;;;;;13.50;4.50;;;;;;;20.75;77.61;101297.54;218313;1287;143699;-88
2023/09/05 18:28:06;;;;;;;9.90;4.50;;;;;;;20.56;78.74;101295.94;218885;1286;139800;-88
2023/09/05 18:33:06;;;;;;;10.70;4.40;;;;;;;20.44;79.59;101296.29;218202;1287;140288;-89
2023/09/05 18:38:07;;;;;;;11.40;3.90;;;;;;;20.28;80.68;101298.13;218829;1288;139204;-89
2023/09/05 18:43:11;;;;;;;12.50;4.10;;;;;;;20.07;81.57;101297.55;218363;1286;139153;-88
2023/09/05 18:48:12;;;;;;;10.10;4.90;;;;;;;19.86;82.48;101294.46;218801;1287;95944;-89
2023/09/05 18:53:13;;;;;;;8.50;4.90;;;;;;;19.71;83.22;101289.63;218156;1286;140657;-88
2023/09/05 18:58:13;;;;;;;9.80;4.80;;;;;;;19.62;83.97;101287.74;218798;1288;139293;-87
2023/09/05 19:03:14;;;;;;;11.10;4.70;;;;;;;19.49;84.36;101286.30;218308;1288;143189;-88
2023/09/05 19:08:15;;;;;;;11.80;4.70;;;;;;;19.30;85.10;101284.05;218839;1286;139169;-88
2023/09/05 19:13:15;;;;;;;11.10;5.30;;;;;;;19.12;85.98;101282.92;218214;1287;140586;-88
2023/09/05 19:18:16;;;;;;;8.80;5.00;;;;;;;18.95;86.65;101284.61;218879;1288;96084;-88
2023/09/05 19:23:16;;;;;;;11.70;5.70;;;;;;;18.79;87.50;101289.23;218246;1286;140582;-88
2023/09/05 19:28:17;;;;;;;11.40;5.60;;;;;;;18.66;88.16;101285.36;218856;1287;140190;-87
2023/09/05 19:33:18;;;;;;;10.30;5.50;;;;;;;18.54;88.94;101288.80;218328;1288;140684;-87
2023/09/05 19:38:18;;;;;;;11.00;5.50;;;;;;;18.43;88.84;101282.83;218848;1288;139809;-87
2023/09/05 19:43:20;;;;;;;13.00;5.40;;;;;;;18.33;89.98;101279.61;218473;1288;141904;-87
2023/09/05 19:48:21;;;;;;;14.50;6.00;;;;;;;18.17;90.44;101278.04;218851;1288;96056;-87
2023/09/05 19:53:21;;;;;;;13.20;5.90;;;;;;;18.02;91.54;101279.56;218352;1287;141275;-87
2023/09/05 19:58:22;;;;;;;13.90;6.00;;;;;;;17.90;91.48;101278.27;218668;1285;140166;-87
2023/09/05 20:03:23;;;;;;;12.60;5.40;;;;;;;17.83;92.23;101285.30;218268;1288;141226;-87
2023/09/05 20:08:23;;;;;;;11.40;6.20;;;;;;;17.74;92.19;101280.81;218880;1286;139188;-88
2023/09/05 20:13:25;;;;;;;9.70;5.50;;;;;;;17.67;92.88;101278.07;218344;1285;141312;-88
2023/09/05 20:18:26;;;;;;;12.40;5.90;;;;;;;17.52;92.98;101284.24;218791;1286;96233;-87
2023/09/05 20:23:26;;;;;;;19.00;7.90;;;;;;;17.42;93.17;101280.30;218242;1288;141959;-87
2023/09/05 20:28:30;;;;;;;21.10;7.50;;;;;;;17.36;93.75;101276.65;218861;1286;139859;-88
2023/09/05 20:33:31;;;;;;;12.00;7.10;;;;;;;17.26;94.49;101283.43;218266;1285;142397;-87
2023/09/05 20:38:31;;;;;;;13.90;7.30;;;;;;;17.16;95.20;101282.64;218658;1288;139626;-89
2023/09/05 20:43:33;;;;;;;20.00;7.50;;;;;;;17.07;95.46;101276.88;218270;1287;140911;-87
2023/09/05 20:48:34;;;;;;;15.80;6.90;;;;;;;16.97;95.89;101276.81;218910;1287;96002;-88
2023/09/05 20:53:37;;;;;;;15.70;7.70;;;;;;;16.93;96.11;101281.26;218266;1287;141782;-87
2023/09/05 20:58:37;;;;;;;19.10;9.10;;;;;;;16.83;96.81;101286.75;218606;1286;139261;-88
2023/09/05 21:03:38;;;;;;;14.80;7.90;;;;;;;16.71;97.36;101287.00;218386;1286;143436;-88
2023/09/05 21:08:40;;;;;;;24.60;9.30;;;;;;;16.64;97.53;101292.31;218709;1287;139446;-88
2023/09/05 21:13:40;;;;;;;17.70;8.60;;;;;;;16.58;97.60;101289.63;218329;1286;141342;-88
2023/09/05 21:18:41;;;;;;;16.30;8.90;;;;;;;16.51;98.44;101293.75;218988;1288;96225;-88
2023/09/05 21:23:42;;;;;;;15.90;9.60;;;;;;;16.41;98.86;101301.73;218355;1286;141674;-87
2023/09/05 21:28:43;;;;;;;19.90;9.20;;;;;;;16.32;98.84;101301.15;218678;1288;139493;-88
2023/09/05 21:33:44;;;;;;;17.10;8.80;;;;;;;16.28;98.96;101302.73;218406;1288;140959;-88
2023/09/05 21:38:44;;;;;;;14.50;8.00;;;;;;;16.21;99.43;101305.02;218867;1286;139468;-88
2023/09/05 21:43:44;;;;;;;15.30;8.90;;;;;;;16.15;99.55;101307.46;218260;1288;211272;-89
2023/09/05 21:48:45;;;;;;;17.10;8.00;;;;;;;16.07;99.58;101304.75;218876;1286;96183;-88
2023/09/05 21:53:45;;;;;;;16.30;8.80;;;;;;;16.02;99.73;101300.29;218305;1286;227733;-88
2023/09/05 21:58:46;;;;;;;18.40;8.40;;;;;;;15.96;99.75;101300.51;218799;1289;139544;-88
2023/09/05 22:03:47;;;;;;;15.20;8.20;;;;;;;15.90;99.90;101298.35;218296;1287;141009;-87
2023/09/05 22:08:48;;;;;;;14.60;7.90;;;;;;;15.83;99.97;101295.63;218790;1288;139733;-87
2023/09/05 22:13:48;;;;;;;16.20;7.20;;;;;;;15.78;99.88;101302.11;218275;1288;142043;-88
2023/09/05 22:18:53;;;;;;;13.60;7.90;;;;;;;15.73;99.83;101298.52;219142;1285;96090;-88
2023/09/05 22:23:54;;;;;;;14.90;8.30;;;;;;;15.66;100.00;101291.75;218113;1287;142760;-88
2023/09/05 22:28:54;;;;;;;14.20;8.40;;;;;;;15.59;100.00;101294.90;218876;1288;139563;-87
2023/09/05 22:33:55;;;;;;;15.20;7.90;;;;;;;15.53;100.00;101294.16;218321;1288;141342;-88